createdAt,value
2023-02-16T00:00:54.066Z,63.31
2023-02-16T00:03:23.054Z,63.38
2023-02-16T00:05:51.284Z,63.71
2023-02-16T00:08:18.698Z,63.54
2023-02-16T00:11:07.068Z,63.39
2023-02-16T00:13:48.315Z,64.18
2023-02-16T00:16:20.724Z,64.64
2023-02-16T00:18:48.844Z,64.45
2023-02-16T00:21:16.685Z,65.28
2023-02-16T00:23:45.060Z,65.08
2023-02-16T00:26:18.653Z,65.01
2023-02-16T00:28:50.548Z,65.03
2023-02-16T00:31:23.980Z,65.09
2023-02-16T00:33:51.101Z,65.07
2023-02-16T00:36:21.271Z,65.73
2023-02-16T00:38:48.559Z,65.26
2023-02-16T00:41:37.362Z,65.26
2023-02-16T00:44:20.667Z,65.24
2023-02-16T00:46:48.620Z,65.80
2023-02-16T00:49:18.834Z,65.36
2023-02-16T00:51:47.916Z,65.23
2023-02-16T00:54:15.585Z,65.30
2023-02-16T00:56:43.737Z,65.55
2023-02-16T00:59:22.665Z,65.78
2023-02-16T01:01:50.329Z,66.09
2023-02-16T01:04:22.912Z,66.21
2023-02-16T01:07:08.661Z,66.43
2023-02-16T01:09:54.578Z,67.57
2023-02-16T01:12:22.189Z,67.30
2023-02-16T01:14:53.469Z,67.63
2023-02-16T01:17:24.801Z,67.95
2023-02-16T01:19:55.177Z,68.44
2023-02-16T01:22:22.564Z,69.51
2023-02-16T01:24:50.017Z,69.90
2023-02-16T01:27:18.305Z,70.40
2023-02-16T01:29:46.293Z,70.77
2023-02-16T01:32:14.895Z,72.13
2023-02-16T01:34:42.571Z,72.63
2023-02-16T01:37:16.085Z,72.68
2023-02-16T01:39:44.875Z,73.17
2023-02-16T01:42:34.882Z,73.45
2023-02-16T01:45:09.370Z,73.72
2023-02-16T01:47:44.928Z,73.16
2023-02-16T01:50:17.253Z,73.91
2023-02-16T01:52:56.993Z,73.39
2023-02-16T01:55:43.180Z,72.89
2023-02-16T01:58:36.072Z,72.46
2023-02-16T02:01:05.394Z,72.63
2023-02-16T02:03:55.252Z,72.53
2023-02-16T02:06:34.984Z,72.11
2023-02-16T02:09:02.378Z,72.03
2023-02-16T02:11:56.760Z,71.67
2023-02-16T02:14:28.233Z,71.39
2023-02-16T02:17:03.206Z,71.71
2023-02-16T02:19:56.828Z,71.18
2023-02-16T02:22:46.606Z,71.16
2023-02-16T02:25:35.992Z,71.47
2023-02-16T02:28:08.908Z,71.65
2023-02-16T02:30:42.014Z,71.79
2023-02-16T02:33:12.206Z,71.90
2023-02-16T02:35:59.067Z,71.82
2023-02-16T02:38:44.473Z,72.23
2023-02-16T02:42:07.359Z,72.65
2023-02-16T02:44:46.740Z,72.87
2023-02-16T02:47:14.259Z,72.53
2023-02-16T02:49:54.267Z,72.31
2023-02-16T02:52:22.928Z,72.80
2023-02-16T02:55:09.301Z,72.45
2023-02-16T02:58:03.668Z,73.04
2023-02-16T03:00:41.806Z,72.72
2023-02-16T03:03:12.428Z,73.88
2023-02-16T03:05:44.315Z,73.90
2023-02-16T03:08:15.676Z,74.05
2023-02-16T03:11:08.829Z,74.43
2023-02-16T03:13:40.815Z,74.87
2023-02-16T03:16:13.293Z,74.81
2023-02-16T03:19:02.686Z,75.33
2023-02-16T03:21:48.829Z,75.83
2023-02-16T03:24:40.738Z,75.95
2023-02-16T03:27:28.101Z,76.47
2023-02-16T03:29:57.319Z,76.42
2023-02-16T03:32:24.830Z,76.46
2023-02-16T03:34:52.336Z,76.22
2023-02-16T03:37:19.545Z,76.11
2023-02-16T03:40:05.575Z,75.52
2023-02-16T03:42:32.850Z,75.76
2023-02-16T03:45:00.329Z,75.71
2023-02-16T03:47:27.573Z,75.32
2023-02-16T03:49:54.989Z,75.32
2023-02-16T03:52:22.424Z,74.75
2023-02-16T03:54:49.774Z,74.77
2023-02-16T03:57:17.555Z,75.01
2023-02-16T03:59:44.693Z,75.38
2023-02-16T04:02:12.182Z,74.98
2023-02-16T04:04:39.884Z,75.33
2023-02-16T04:07:07.339Z,75.65
2023-02-16T04:09:34.696Z,75.77
2023-02-16T04:12:20.624Z,75.59
2023-02-16T04:14:48.176Z,75.87
2023-02-16T04:17:15.264Z,75.48
2023-02-16T04:19:42.575Z,75.31
2023-02-16T04:22:09.819Z,75.46
2023-02-16T04:24:36.994Z,74.93
2023-02-16T04:27:07.736Z,75.12
2023-02-16T04:29:35.381Z,75.01
2023-02-16T04:32:02.583Z,75.29
2023-02-16T04:34:30.131Z,75.86
2023-02-16T04:36:57.244Z,75.40
2023-02-16T04:39:24.578Z,74.87
2023-02-16T04:41:52.097Z,74.73
2023-02-16T04:44:19.530Z,74.57
2023-02-16T04:46:46.735Z,74.58
2023-02-16T04:49:13.995Z,74.67
2023-02-16T04:51:41.191Z,74.71
2023-02-16T04:54:08.609Z,74.82
2023-02-16T04:56:35.799Z,75.07
2023-02-16T04:59:03.852Z,74.94
2023-02-16T05:01:31.501Z,74.54
2023-02-16T05:03:58.974Z,74.78
2023-02-16T05:06:26.261Z,74.88
2023-02-16T05:08:53.614Z,74.87
2023-02-16T05:11:39.427Z,75.03
2023-02-16T05:14:25.636Z,74.83
2023-02-16T05:16:54.394Z,74.82
2023-02-16T05:19:21.766Z,74.83
2023-02-16T05:21:49.407Z,74.65
2023-02-16T05:24:17.123Z,74.60
2023-02-16T05:26:44.972Z,74.72
2023-02-16T05:29:13.157Z,74.65
2023-02-16T05:31:41.188Z,74.55
2023-02-16T05:34:09.069Z,74.31
2023-02-16T05:36:36.355Z,74.51
2023-02-16T05:39:05.083Z,74.82
2023-02-16T05:41:32.659Z,74.40
2023-02-16T05:44:03.610Z,74.31
2023-02-16T05:46:35.188Z,74.83
2023-02-16T05:49:04.296Z,75.54
2023-02-16T05:51:31.646Z,75.51
2023-02-16T05:53:59.570Z,74.96
2023-02-16T05:56:28.350Z,75.38
2023-02-16T05:58:56.008Z,75.94
2023-02-16T06:01:23.397Z,75.92
2023-02-16T06:03:51.080Z,75.97
2023-02-16T06:06:19.585Z,76.35
2023-02-16T06:08:47.753Z,76.93
2023-02-16T06:11:35.780Z,76.74
2023-02-16T06:14:08.536Z,78.02
2023-02-16T06:16:39.167Z,78.52
2023-02-16T06:19:07.704Z,78.20
2023-02-16T06:21:36.790Z,78.90
2023-02-16T06:24:05.597Z,78.46
2023-02-16T06:26:34.967Z,77.72
2023-02-16T06:29:03.221Z,76.68
2023-02-16T06:31:31.151Z,75.58
2023-02-16T06:33:59.552Z,74.13
2023-02-16T06:36:27.371Z,73.02
2023-02-16T06:38:55.114Z,73.26
2023-02-16T06:41:31.977Z,72.47
2023-02-16T06:44:01.547Z,71.77
2023-02-16T06:46:29.864Z,70.53
2023-02-16T06:48:57.802Z,70.31
2023-02-16T06:51:25.555Z,69.78
2023-02-16T06:53:53.072Z,69.82
2023-02-16T06:56:20.480Z,68.60
2023-02-16T06:58:47.948Z,68.26
2023-02-16T07:01:15.641Z,67.54
2023-02-16T07:03:43.156Z,67.25
2023-02-16T07:06:11.252Z,66.61
2023-02-16T07:08:38.828Z,64.86
2023-02-16T07:11:07.056Z,64.65
2023-02-16T07:13:38.137Z,64.24
2023-02-16T07:16:09.304Z,63.43
2023-02-16T07:18:37.747Z,63.34
2023-02-16T07:21:06.260Z,63.19
2023-02-16T07:23:35.154Z,63.27
2023-02-16T07:26:02.868Z,62.35
2023-02-16T07:28:30.688Z,60.19
2023-02-16T07:30:59.593Z,60.68
2023-02-16T07:33:27.616Z,60.51
2023-02-16T07:35:55.525Z,60.59
2023-02-16T07:38:22.892Z,60.62
2023-02-16T07:40:50.281Z,59.90
2023-02-16T07:43:19.162Z,59.16
2023-02-16T07:45:46.910Z,59.12
2023-02-16T07:48:14.317Z,57.99
2023-02-16T07:50:42.960Z,56.85
2023-02-16T07:53:12.962Z,56.81
2023-02-16T07:55:42.811Z,57.42
2023-02-16T07:58:11.449Z,57.01
2023-02-16T08:00:39.309Z,57.28
2023-02-16T08:03:07.382Z,57.91
2023-02-16T08:05:35.427Z,58.70
2023-02-16T08:08:03.298Z,58.91
2023-02-16T08:10:30.672Z,58.68
2023-02-16T08:12:58.169Z,59.10
2023-02-16T08:15:25.459Z,59.00
2023-02-16T08:17:53.230Z,59.46
2023-02-16T08:20:23.828Z,59.55
2023-02-16T08:22:55.887Z,60.45
2023-02-16T08:25:22.986Z,60.66
2023-02-16T08:27:50.708Z,60.92
2023-02-16T08:30:18.671Z,60.93
2023-02-16T08:32:46.751Z,62.07
2023-02-16T08:35:16.543Z,61.82
2023-02-16T08:37:45.611Z,61.73
2023-02-16T08:40:13.318Z,60.59
2023-02-16T08:42:40.886Z,59.83
2023-02-16T08:45:09.314Z,60.05
2023-02-16T08:47:37.142Z,59.02
2023-02-16T08:50:05.581Z,58.59
2023-02-16T08:52:33.157Z,58.44
2023-02-16T08:55:01.155Z,58.78
2023-02-16T08:57:28.729Z,58.05
2023-02-16T09:00:15.893Z,58.31
2023-02-16T09:02:43.742Z,57.57
2023-02-16T09:05:10.967Z,57.52
2023-02-16T09:07:39.324Z,58.26
2023-02-16T09:10:08.421Z,58.57
2023-02-16T09:12:37.415Z,58.00
2023-02-16T09:15:05.248Z,58.52
2023-02-16T09:17:33.527Z,57.68
2023-02-16T09:20:03.248Z,57.69
2023-02-16T09:22:31.004Z,58.94
2023-02-16T09:24:58.276Z,58.71
2023-02-16T09:27:27.249Z,58.45
2023-02-16T09:29:55.080Z,58.24
2023-02-16T09:32:23.299Z,58.11
2023-02-16T09:34:51.968Z,58.03
2023-02-16T09:37:19.184Z,57.92
2023-02-16T09:39:47.944Z,57.89
2023-02-16T09:42:19.921Z,56.82
2023-02-16T09:44:59.247Z,56.63
2023-02-16T09:47:31.502Z,57.10
2023-02-16T09:50:52.140Z,57.06
2023-02-16T09:53:36.817Z,56.99
2023-02-16T09:56:08.927Z,56.48
2023-02-16T09:59:13.087Z,57.48
2023-02-16T10:02:00.797Z,57.21
2023-02-16T10:04:44.239Z,57.06
2023-02-16T10:07:25.057Z,56.63
2023-02-16T10:09:56.814Z,56.77
2023-02-16T10:12:33.074Z,56.45
2023-02-16T10:15:10.311Z,57.05
2023-02-16T10:17:45.377Z,56.90
2023-02-16T10:20:43.635Z,55.86
2023-02-16T10:23:31.785Z,54.47
2023-02-16T10:26:19.031Z,54.52
2023-02-16T10:28:49.058Z,54.93
2023-02-16T10:31:45.105Z,54.00
2023-02-16T10:34:24.720Z,54.00
2023-02-16T10:37:19.775Z,54.74
2023-02-16T10:40:15.241Z,53.68
2023-02-16T10:42:47.322Z,52.32
2023-02-16T10:45:16.466Z,51.01
2023-02-16T10:47:48.124Z,51.41
2023-02-16T10:50:49.108Z,50.40
2023-02-16T10:53:22.027Z,50.70
2023-02-16T10:55:50.855Z,50.19
2023-02-16T10:58:27.506Z,49.81
2023-02-16T11:01:15.347Z,48.30
2023-02-16T11:03:53.598Z,47.53
2023-02-16T11:06:23.587Z,45.47
2023-02-16T11:08:58.172Z,44.99
2023-02-16T11:11:30.445Z,43.79
2023-02-16T11:14:06.378Z,44.93
2023-02-16T11:16:35.071Z,43.75
2023-02-16T11:19:23.074Z,43.02
2023-02-16T11:21:57.707Z,44.34
2023-02-16T11:24:34.376Z,43.75
2023-02-16T11:27:20.857Z,44.42
2023-02-16T11:29:51.624Z,45.33
2023-02-16T11:32:22.026Z,45.13
2023-02-16T11:34:52.704Z,44.77
2023-02-16T11:37:34.523Z,44.49
2023-02-16T11:40:21.541Z,44.86
2023-02-16T11:42:56.560Z,44.20
2023-02-16T11:45:33.209Z,43.88
2023-02-16T11:48:08.211Z,43.43
2023-02-16T11:50:39.008Z,42.62
2023-02-16T11:53:13.006Z,44.30
2023-02-16T11:55:44.855Z,43.54
2023-02-16T11:58:29.834Z,42.42
2023-02-16T12:01:10.619Z,42.32
2023-02-16T12:04:14.594Z,42.18
2023-02-16T12:07:01.102Z,40.33
2023-02-16T12:09:39.584Z,40.29
2023-02-16T12:12:32.504Z,41.19
2023-02-16T12:15:00.916Z,40.49
2023-02-16T12:17:41.060Z,41.73
2023-02-16T12:20:33.526Z,41.20
2023-02-16T12:23:36.570Z,42.39
2023-02-16T12:26:20.485Z,42.24
2023-02-16T12:29:00.423Z,42.72
2023-02-16T12:31:38.074Z,44.58
2023-02-16T12:34:06.322Z,43.11
2023-02-16T12:36:47.986Z,44.57
2023-02-16T12:39:31.962Z,43.07
2023-02-16T12:42:18.519Z,43.36
2023-02-16T12:44:54.584Z,42.29
2023-02-16T12:47:30.228Z,42.17
2023-02-16T12:50:03.942Z,41.71
2023-02-16T12:52:40.640Z,41.30
2023-02-16T12:55:56.531Z,41.41
2023-02-16T12:58:31.304Z,47.80
2023-02-16T13:01:05.416Z,47.22
2023-02-16T13:03:40.962Z,41.35
2023-02-16T13:06:17.782Z,42.78
2023-02-16T13:09:21.095Z,43.70
2023-02-16T13:12:12.853Z,43.91
2023-02-16T13:14:44.886Z,43.63
2023-02-16T13:17:54.614Z,44.55
2023-02-16T13:20:23.725Z,43.61
2023-02-16T13:23:22.217Z,44.31
2023-02-16T13:25:58.983Z,43.68
2023-02-16T13:28:41.797Z,43.74
2023-02-16T13:31:54.189Z,43.97
2023-02-16T13:34:33.814Z,45.61
2023-02-16T13:37:25.248Z,46.12
2023-02-16T13:40:12.065Z,48.60
2023-02-16T13:43:04.294Z,49.48
2023-02-16T13:45:38.666Z,50.17
2023-02-16T13:48:29.899Z,50.75
2023-02-16T13:51:04.924Z,49.26
2023-02-16T13:53:51.120Z,50.93
2023-02-16T13:56:29.883Z,51.92
2023-02-16T13:59:20.746Z,52.28
2023-02-16T14:01:51.284Z,51.92
2023-02-16T14:04:27.722Z,53.45
2023-02-16T14:07:04.100Z,53.65
2023-02-16T14:09:43.198Z,53.87
2023-02-16T14:12:28.469Z,54.36
2023-02-16T14:15:01.259Z,55.33
2023-02-16T14:17:29.875Z,55.47
2023-02-16T14:20:25.475Z,56.27
2023-02-16T14:22:57.777Z,56.94
2023-02-16T14:25:25.139Z,57.62
2023-02-16T14:27:57.622Z,58.36
2023-02-16T14:30:31.648Z,57.88
2023-02-16T14:33:05.996Z,58.20
2023-02-16T14:35:37.828Z,58.20
2023-02-16T14:38:16.741Z,57.20
2023-02-16T14:40:55.750Z,57.50
2023-02-16T14:43:41.819Z,58.67
2023-02-16T14:46:12.718Z,59.08
2023-02-16T14:48:55.536Z,59.94
2023-02-16T14:51:41.174Z,59.72
2023-02-16T14:54:31.254Z,60.39
2023-02-16T14:57:27.432Z,60.92
2023-02-16T15:00:00.139Z,61.22
2023-02-16T15:02:39.336Z,62.55
2023-02-16T15:05:19.032Z,62.87
2023-02-16T15:07:51.593Z,62.52
2023-02-16T15:10:27.280Z,62.70
2023-02-16T15:12:56.896Z,63.52
2023-02-16T15:15:36.925Z,63.75
2023-02-16T15:18:06.852Z,64.21
2023-02-16T15:20:39.202Z,64.69
2023-02-16T15:23:30.225Z,65.68
2023-02-16T15:26:00.685Z,66.19
2023-02-16T15:28:36.226Z,67.01
2023-02-16T15:31:07.047Z,67.65
2023-02-16T15:33:44.760Z,69.26
2023-02-16T15:36:14.470Z,69.93
2023-02-16T15:38:54.921Z,70.85
2023-02-16T15:41:38.009Z,71.31
2023-02-16T15:44:07.599Z,71.88
2023-02-16T15:46:42.321Z,72.21
2023-02-16T15:49:30.618Z,72.60
2023-02-16T15:51:59.413Z,73.21
2023-02-16T15:54:29.026Z,73.65
2023-02-16T15:56:58.742Z,74.55
2023-02-16T15:59:41.164Z,75.30
2023-02-16T16:02:28.632Z,75.47
2023-02-16T16:04:59.227Z,75.96
2023-02-16T16:07:41.972Z,76.18
2023-02-16T16:10:37.047Z,76.33
2023-02-16T16:13:07.548Z,76.79
2023-02-16T16:15:40.943Z,76.74
2023-02-16T16:18:37.827Z,76.80
2023-02-16T16:21:14.168Z,77.03
2023-02-16T16:23:42.901Z,76.79
2023-02-16T16:26:20.524Z,77.02
2023-02-16T16:28:48.256Z,77.22
2023-02-16T16:31:21.713Z,77.48
2023-02-16T16:33:58.749Z,78.33
2023-02-16T16:36:37.046Z,78.47
2023-02-16T16:39:19.463Z,78.83
2023-02-16T16:42:04.367Z,78.85
2023-02-16T16:44:52.839Z,79.14
2023-02-16T16:47:22.869Z,79.95
2023-02-16T16:49:55.943Z,80.77
2023-02-16T16:52:47.835Z,81.67
2023-02-16T16:55:25.158Z,82.33
2023-02-16T16:58:00.614Z,83.04
2023-02-16T17:00:38.526Z,83.84
2023-02-16T17:03:08.441Z,84.17
2023-02-16T17:05:38.594Z,84.70
2023-02-16T17:08:06.154Z,85.42
2023-02-16T17:10:35.376Z,85.72
2023-02-16T17:13:03.463Z,85.83
2023-02-16T17:15:44.680Z,86.47
2023-02-16T17:18:17.551Z,86.73
2023-02-16T17:20:45.800Z,86.97
2023-02-16T17:23:14.535Z,87.44
2023-02-16T17:25:42.494Z,87.98
2023-02-16T17:28:11.850Z,88.16
2023-02-16T17:30:39.619Z,88.76
2023-02-16T17:33:07.644Z,88.61
2023-02-16T17:35:38.118Z,88.63
2023-02-16T17:38:20.776Z,88.45
2023-02-16T17:40:49.758Z,88.67
2023-02-16T17:43:18.880Z,89.14
2023-02-16T17:45:47.612Z,89.42
2023-02-16T17:48:28.946Z,89.33
2023-02-16T17:51:00.569Z,89.62
2023-02-16T17:53:29.550Z,90.01
2023-02-16T17:55:58.115Z,89.56
2023-02-16T17:58:26.038Z,89.75
2023-02-16T18:00:54.518Z,90.12
2023-02-16T18:03:23.516Z,89.58
2023-02-16T18:05:51.706Z,90.46
2023-02-16T18:08:20.271Z,89.56
2023-02-16T18:10:51.344Z,89.87
2023-02-16T18:13:19.718Z,90.31
2023-02-16T18:15:49.155Z,91.05
2023-02-16T18:18:18.626Z,91.35
2023-02-16T18:20:47.535Z,91.41
2023-02-16T18:23:16.073Z,91.71
2023-02-16T18:25:44.704Z,90.99
2023-02-16T18:28:21.288Z,90.22
2023-02-16T18:30:51.191Z,88.55
2023-02-16T18:33:22.928Z,87.26
2023-02-16T18:35:56.531Z,85.68
2023-02-16T18:38:25.012Z,85.08
2023-02-16T18:40:54.385Z,84.29
2023-02-16T18:43:23.217Z,83.65
2023-02-16T18:45:51.858Z,84.51
2023-02-16T18:48:19.767Z,85.11
2023-02-16T18:50:47.636Z,85.43
2023-02-16T18:53:15.561Z,88.86
2023-02-16T18:55:46.500Z,91.31
2023-02-16T18:58:15.579Z,91.71
2023-02-16T19:00:43.392Z,91.35
2023-02-16T19:03:12.555Z,90.07
2023-02-16T19:05:40.394Z,88.58
2023-02-16T19:08:08.358Z,91.46
2023-02-16T19:10:36.044Z,90.73
2023-02-16T19:13:05.712Z,90.70
2023-02-16T19:15:34.521Z,91.63
2023-02-16T19:18:01.869Z,91.40
2023-02-16T19:20:30.018Z,89.82
2023-02-16T19:22:57.878Z,92.46
2023-02-16T19:25:25.164Z,95.38
2023-02-16T19:27:52.879Z,94.92
2023-02-16T19:30:22.107Z,96.28
2023-02-16T19:32:49.699Z,97.54
2023-02-16T19:35:17.561Z,98.27
2023-02-16T19:37:45.290Z,98.08
2023-02-16T19:40:13.389Z,98.31
2023-02-16T19:42:41.111Z,97.21
2023-02-16T19:45:08.982Z,97.93
2023-02-16T19:47:36.530Z,98.82
2023-02-16T19:50:04.393Z,98.78
2023-02-16T19:52:32.474Z,99.36
2023-02-16T19:54:59.740Z,98.81
2023-02-16T19:57:27.007Z,98.53
2023-02-16T19:59:54.695Z,99.27
2023-02-16T20:02:25.080Z,98.64
2023-02-16T20:04:54.765Z,99.38
2023-02-16T20:07:29.174Z,99.85
2023-02-16T20:09:58.798Z,100.00
2023-02-16T20:12:29.885Z,100.00
2023-02-16T20:15:01.952Z,100.00
2023-02-16T20:17:29.649Z,100.00
2023-02-16T20:19:57.484Z,99.63
2023-02-16T20:22:25.074Z,98.96
2023-02-16T20:24:52.363Z,97.21
2023-02-16T20:27:19.735Z,96.28
2023-02-16T20:29:47.913Z,95.08
2023-02-16T20:32:15.770Z,93.99
2023-02-16T20:34:43.325Z,93.83
2023-02-16T20:37:11.086Z,93.70
2023-02-16T20:39:38.731Z,93.27
2023-02-16T20:42:05.914Z,92.85
2023-02-16T20:44:34.263Z,92.29
2023-02-16T20:47:02.176Z,92.30
2023-02-16T20:49:30.028Z,91.86
2023-02-16T20:51:57.606Z,91.50
2023-02-16T20:54:24.783Z,92.13
2023-02-16T20:56:52.304Z,91.45
2023-02-16T20:59:19.522Z,92.43
2023-02-16T21:01:47.755Z,92.86
2023-02-16T21:04:18.101Z,94.72
2023-02-16T21:06:45.954Z,96.96
2023-02-16T21:09:14.244Z,98.69
2023-02-16T21:11:43.247Z,100.00
2023-02-16T21:14:12.440Z,100.00
2023-02-16T21:16:41.266Z,99.49
2023-02-16T21:19:20.941Z,98.32
2023-02-16T21:21:49.611Z,97.61
2023-02-16T21:24:16.641Z,97.24
2023-02-16T21:26:44.176Z,95.99
2023-02-16T21:29:11.837Z,97.48
2023-02-16T21:31:39.441Z,97.37
2023-02-16T21:34:06.868Z,96.18
2023-02-16T21:36:34.281Z,95.18
2023-02-16T21:39:02.972Z,93.78
2023-02-16T21:41:34.229Z,93.34
2023-02-16T21:44:04.630Z,92.51
2023-02-16T21:46:33.801Z,92.06
2023-02-16T21:49:01.676Z,93.18
2023-02-16T21:51:33.550Z,93.37
2023-02-16T21:54:02.726Z,94.37
2023-02-16T21:56:36.982Z,94.00
2023-02-16T21:59:06.874Z,93.40
2023-02-16T22:01:46.073Z,94.46
2023-02-16T22:04:16.421Z,93.75
2023-02-16T22:06:47.006Z,93.23
2023-02-16T22:09:24.834Z,93.18
2023-02-16T22:11:52.552Z,94.08
2023-02-16T22:14:20.135Z,95.54
2023-02-16T22:16:48.730Z,97.28
2023-02-16T22:19:18.567Z,95.68
2023-02-16T22:21:47.939Z,94.96
2023-02-16T22:24:17.262Z,94.50
2023-02-16T22:26:46.252Z,95.38
2023-02-16T22:29:13.295Z,94.83
2023-02-16T22:31:45.297Z,97.78
2023-02-16T22:34:14.988Z,99.30
2023-02-16T22:36:42.188Z,98.51
2023-02-16T22:39:13.235Z,96.56
2023-02-16T22:41:40.603Z,96.83
2023-02-16T22:44:07.938Z,95.71
2023-02-16T22:46:36.077Z,95.06
2023-02-16T22:49:03.640Z,95.49
2023-02-16T22:51:31.974Z,95.35
2023-02-16T22:54:00.915Z,94.39
2023-02-16T22:56:28.505Z,96.38
2023-02-16T22:58:57.675Z,96.18
2023-02-16T23:01:27.037Z,97.02
2023-02-16T23:04:00.361Z,95.80
2023-02-16T23:06:36.112Z,94.69
2023-02-16T23:09:15.969Z,94.22
2023-02-16T23:11:43.990Z,93.92
2023-02-16T23:14:16.726Z,93.50
2023-02-16T23:16:51.077Z,93.36
2023-02-16T23:19:24.733Z,93.37
2023-02-16T23:21:52.538Z,93.48
2023-02-16T23:24:23.216Z,93.85
2023-02-16T23:26:54.594Z,93.61
2023-02-16T23:29:21.825Z,93.63
2023-02-16T23:31:49.303Z,93.83
2023-02-16T23:34:17.789Z,93.79
2023-02-16T23:36:45.678Z,93.83
2023-02-16T23:39:15.506Z,93.99
2023-02-16T23:41:43.170Z,93.59
2023-02-16T23:44:12.928Z,93.79
2023-02-16T23:46:40.442Z,93.23
2023-02-16T23:49:08.210Z,94.02
2023-02-16T23:51:35.309Z,94.39
2023-02-16T23:54:02.711Z,95.59
2023-02-16T23:56:30.069Z,95.49
2023-02-16T23:59:00.252Z,97.14
